Portada
METAR-TAF:

METAR-TAF

Aeroports :

Bíldudalur, Islàndia

latitud: 65-38-30N, longitud: 23-32-45W, altitud: 8 m

Observació

L'informe es va fer fa 13 hores i 22 minuts, a les 16:00 UTC
Vent 7 kt del Nord/Nord-Est
Temperatura 11°C
Humitat 71%
Pressió 1019 hPa
Visibilitat 10 km o més
Escasses núvols a una alçada de 3000 ft
Núvols disperses a una alçada de 4500 ft

METAR: BIBD 031600Z 02007KT 9999 FEW030 SCT045 11/06 Q1019

Hora: 05:22 (05:22 UTC)

Pronòstic

L'informe es va fer fa 18 hores i 55 minuts, a les 10:27 UTC
Pronòstic vàlid del 03 a les 11 UTC al 03 a les 20 UTC
Vent 2 kt amb direcció variable
Visibilitat 10 km o més
Núvols disperses a una alçada de 2500 ft
Cel ennuvolat a una alçada de 3000 ft

TAF: BIBD 031027Z 0311/0320 VRB02KT 9999 SCT025 BKN030

Observacions i pronòstics meteorològics de més de 4000 aeroports (METAR i TAF).

Les estacions disponibles són els punts grocs i vermells al mapa.

Posi el ratolí al punt desitjat per veure el nom de l'estació.

Feu clic per veure les observacions i els pronòstics meteorològics.

Per canviar el mapa: feu clic els botons verds amb una creu de color negre per apropar; al botó verd amb un guió per allunyar la imatge; o en les fletxes verdes per a mapes adjacents.


METAR-TAF: